createdAt,value
2019-04-04T00:00:01.580Z,12.40
2019-04-04T00:01:43.292Z,15.50
2019-04-04T00:03:20.761Z,19.47
2019-04-04T00:04:57.810Z,12.20
2019-04-04T00:06:33.457Z,14.47
2019-04-04T00:08:08.981Z,16.93
2019-04-04T00:09:44.505Z,15.97
2019-04-04T00:11:20.040Z,15.10
2019-04-04T00:12:55.571Z,15.23
2019-04-04T00:14:32.720Z,14.45
2019-04-04T00:16:08.269Z,15.73
2019-04-04T00:17:43.791Z,15.97
2019-04-04T00:19:19.328Z,14.40
2019-04-04T00:20:54.869Z,16.80
2019-04-04T00:22:30.391Z,14.25
2019-04-04T00:24:07.104Z,13.43
2019-04-04T00:25:43.219Z,17.07
2019-04-04T00:27:19.075Z,15.87
2019-04-04T00:28:54.608Z,13.28
2019-04-04T00:30:30.131Z,15.50
2019-04-04T00:32:05.672Z,15.53
2019-04-04T00:33:41.198Z,14.17
2019-04-04T00:35:18.315Z,15.57
2019-04-04T00:36:53.854Z,14.87
2019-04-04T00:38:29.386Z,16.25
2019-04-04T00:40:07.123Z,15.48
2019-04-04T00:41:42.978Z,14.37
2019-04-04T00:43:21.507Z,18.40
2019-04-04T00:44:57.111Z,13.98
2019-04-04T00:46:32.630Z,13.58
2019-04-04T00:48:08.152Z,12.90
2019-04-04T00:49:43.945Z,15.60
2019-04-04T00:51:19.739Z,18.33
2019-04-04T00:52:55.267Z,15.53
2019-04-04T00:54:31.775Z,19.70
2019-04-04T00:56:07.315Z,13.30
2019-04-04T00:57:42.840Z,15.03
2019-04-04T00:59:18.366Z,12.43
2019-04-04T01:00:54.862Z,13.50
2019-04-04T01:02:31.001Z,14.30
2019-04-04T01:04:06.532Z,17.10
2019-04-04T01:05:42.058Z,13.77
2019-04-04T01:07:17.592Z,13.10
2019-04-04T01:08:53.440Z,17.90
2019-04-04T01:10:28.970Z,16.43
2019-04-04T01:12:04.510Z,15.60
2019-04-04T01:13:40.030Z,19.17
2019-04-04T01:15:15.634Z,12.40
2019-04-04T01:16:51.427Z,14.27
2019-04-04T01:18:26.960Z,13.75
2019-04-04T01:20:02.484Z,15.00
2019-04-04T01:21:38.021Z,16.70
2019-04-04T01:23:13.821Z,15.73
2019-04-04T01:24:50.593Z,14.00
2019-04-04T01:26:26.131Z,14.13
2019-04-04T01:28:01.651Z,15.08
2019-04-04T01:29:37.186Z,15.50
2019-04-04T01:31:14.754Z,15.97
2019-04-04T01:32:51.588Z,13.00
2019-04-04T01:34:27.143Z,16.63
2019-04-04T01:36:02.722Z,15.75
2019-04-04T01:37:38.244Z,13.00
2019-04-04T01:39:13.831Z,13.07
2019-04-04T01:40:49.384Z,14.53
2019-04-04T01:42:24.911Z,15.40
2019-04-04T01:44:05.317Z,16.48
2019-04-04T01:45:38.031Z,21.07
2019-04-04T01:47:14.959Z,13.03
2019-04-04T01:48:50.846Z,14.73
2019-04-04T01:50:26.413Z,15.70
2019-04-04T01:52:01.960Z,14.43
2019-04-04T01:53:37.524Z,16.52
2019-04-04T01:55:13.077Z,15.63
2019-04-04T01:56:48.708Z,16.30
2019-04-04T01:58:24.252Z,16.30
2019-04-04T01:59:59.788Z,13.43
2019-04-04T02:01:35.326Z,15.20
2019-04-04T02:03:10.868Z,15.08
2019-04-04T02:04:46.656Z,15.77
2019-04-04T02:06:22.197Z,12.53
2019-04-04T02:07:58.869Z,13.68
2019-04-04T02:09:34.996Z,14.50
2019-04-04T02:11:10.533Z,13.30
2019-04-04T02:12:46.075Z,16.77
2019-04-04T02:14:21.616Z,14.20
2019-04-04T02:15:57.166Z,16.17
2019-04-04T02:17:32.975Z,13.55
2019-04-04T02:19:08.528Z,16.02
2019-04-04T02:20:44.105Z,11.70
2019-04-04T02:22:19.770Z,14.87
2019-04-04T02:23:55.276Z,12.90
2019-04-04T02:25:32.073Z,16.82
2019-04-04T02:27:08.285Z,15.70
2019-04-04T02:28:43.816Z,14.00
2019-04-04T02:30:19.426Z,12.60
2019-04-04T02:31:56.622Z,12.83
2019-04-04T02:33:33.185Z,11.88
2019-04-04T02:35:10.814Z,12.47
2019-04-04T02:36:48.758Z,12.70
2019-04-04T02:38:28.037Z,13.70
2019-04-04T02:40:01.994Z,13.65
2019-04-04T02:41:37.634Z,13.63
2019-04-04T02:43:13.180Z,12.28
2019-04-04T02:44:48.742Z,13.23
2019-04-04T02:46:25.513Z,15.00
2019-04-04T02:48:01.053Z,13.32
2019-04-04T02:49:36.585Z,14.47
2019-04-04T02:51:12.129Z,12.63
2019-04-04T02:52:47.668Z,12.87
2019-04-04T02:54:24.529Z,14.90
2019-04-04T02:56:03.390Z,14.63
2019-04-04T02:57:41.055Z,12.63
2019-04-04T02:59:20.257Z,11.63
2019-04-04T03:00:52.180Z,13.10
2019-04-04T03:02:27.722Z,11.53
2019-04-04T03:04:03.291Z,15.40
2019-04-04T03:05:38.859Z,11.17
2019-04-04T03:07:14.377Z,11.43
2019-04-04T03:08:49.920Z,13.90
2019-04-04T03:10:25.471Z,12.60
2019-04-04T03:12:01.458Z,11.93
2019-04-04T03:13:37.887Z,10.43
2019-04-04T03:15:15.234Z,12.43
2019-04-04T03:16:50.771Z,11.03
2019-04-04T03:18:27.557Z,14.67
2019-04-04T03:20:03.473Z,10.72
2019-04-04T03:21:39.063Z,9.23
2019-04-04T03:23:14.591Z,10.53
2019-04-04T03:24:50.220Z,12.03
2019-04-04T03:26:25.758Z,12.33
2019-04-04T03:28:01.308Z,10.23
2019-04-04T03:29:37.616Z,9.33
2019-04-04T03:31:14.074Z,12.10
2019-04-04T03:32:53.840Z,13.87
2019-04-04T03:34:27.977Z,9.60
2019-04-04T03:36:03.505Z,11.37
2019-04-04T03:37:40.931Z,11.20
2019-04-04T03:39:19.110Z,11.37
2019-04-04T03:40:57.565Z,11.70
2019-04-04T03:42:31.077Z,11.45
2019-04-04T03:44:06.615Z,10.08
2019-04-04T03:45:42.155Z,13.08
2019-04-04T03:47:17.806Z,9.73
2019-04-04T03:48:53.395Z,11.43
2019-04-04T03:50:30.410Z,11.20
2019-04-04T03:52:10.001Z,10.23
2019-04-04T03:53:48.910Z,11.20
2019-04-04T03:55:22.623Z,13.50
2019-04-04T03:56:58.392Z,15.40
2019-04-04T03:58:33.963Z,10.45
2019-04-04T04:00:10.133Z,12.10
2019-04-04T04:01:46.818Z,11.90
2019-04-04T04:03:23.527Z,16.07
2019-04-04T04:05:01.007Z,11.05
2019-04-04T04:06:41.586Z,9.43
2019-04-04T04:08:14.079Z,11.20
2019-04-04T04:09:49.616Z,12.17
2019-04-04T04:11:25.152Z,12.87
2019-04-04T04:13:01.707Z,12.33
2019-04-04T04:14:37.213Z,9.98
2019-04-04T04:16:12.878Z,10.48
2019-04-04T04:17:49.549Z,13.53
2019-04-04T04:19:29.924Z,9.80
2019-04-04T04:21:02.561Z,10.63
2019-04-04T04:22:38.106Z,13.03
2019-04-04T04:24:13.630Z,11.45
2019-04-04T04:25:49.176Z,11.37
2019-04-04T04:27:24.700Z,11.63
2019-04-04T04:29:00.591Z,11.50
2019-04-04T04:30:39.418Z,11.95
2019-04-04T04:32:13.371Z,12.82
2019-04-04T04:33:48.930Z,13.20
2019-04-04T04:35:25.822Z,11.60
2019-04-04T04:37:02.636Z,12.03
2019-04-04T04:38:38.193Z,11.30
2019-04-04T04:40:15.459Z,11.78
2019-04-04T04:41:54.255Z,12.70
2019-04-04T04:43:32.391Z,13.13
2019-04-04T04:45:11.182Z,14.55
2019-04-04T04:46:44.430Z,15.73
2019-04-04T04:48:19.984Z,12.60
2019-04-04T04:49:55.701Z,17.47
2019-04-04T04:51:31.611Z,15.93
2019-04-04T04:53:07.166Z,13.50
2019-04-04T04:54:42.944Z,13.22
2019-04-04T04:56:18.583Z,16.93
2019-04-04T04:57:56.309Z,15.53
2019-04-04T04:59:31.639Z,16.45
2019-04-04T05:01:07.436Z,15.40
2019-04-04T05:02:42.997Z,15.87
2019-04-04T05:04:18.517Z,14.80
2019-04-04T05:05:54.322Z,16.33
2019-04-04T05:07:29.873Z,18.17
2019-04-04T05:09:06.678Z,13.90
2019-04-04T05:10:42.207Z,15.50
2019-04-04T05:12:17.743Z,13.00
2019-04-04T05:13:53.291Z,15.83
2019-04-04T05:15:30.409Z,17.00
2019-04-04T05:17:06.047Z,13.97
2019-04-04T05:18:41.592Z,15.00
2019-04-04T05:20:17.210Z,13.98
2019-04-04T05:21:52.741Z,16.40
2019-04-04T05:23:28.323Z,13.97
2019-04-04T05:25:08.468Z,13.03
2019-04-04T05:26:42.332Z,17.27
2019-04-04T05:28:17.883Z,17.60
2019-04-04T05:29:53.481Z,17.30
2019-04-04T05:31:29.057Z,15.80
2019-04-04T05:33:04.590Z,14.70
2019-04-04T05:34:40.132Z,13.93
2019-04-04T05:36:15.657Z,15.30
2019-04-04T05:37:51.177Z,17.02
2019-04-04T05:39:26.719Z,14.83
2019-04-04T05:41:02.255Z,14.93
2019-04-04T05:42:37.792Z,15.63
2019-04-04T05:44:13.336Z,20.87
2019-04-04T05:45:49.159Z,17.42
2019-04-04T05:47:24.968Z,16.67
2019-04-04T05:49:07.582Z,15.93
2019-04-04T05:50:38.009Z,15.23
2019-04-04T05:52:13.538Z,18.87
2019-04-04T05:53:49.098Z,13.13
2019-04-04T05:55:24.626Z,14.00
2019-04-04T05:57:03.138Z,16.07
2019-04-04T05:58:37.449Z,14.40
2019-04-04T06:00:14.498Z,14.70
2019-04-04T06:01:50.118Z,15.23
2019-04-04T06:03:25.692Z,13.60
2019-04-04T06:05:01.242Z,13.30
2019-04-04T06:06:36.783Z,15.17
2019-04-04T06:08:12.345Z,13.77
2019-04-04T06:09:47.870Z,15.60
2019-04-04T06:11:23.399Z,16.25
2019-04-04T06:12:58.945Z,14.73
2019-04-04T06:14:34.475Z,13.53
2019-04-04T06:16:10.022Z,14.53
2019-04-04T06:17:45.560Z,13.53
2019-04-04T06:19:22.188Z,13.93
2019-04-04T06:20:57.705Z,13.53
2019-04-04T06:22:33.226Z,14.10
2019-04-04T06:24:08.769Z,14.00
2019-04-04T06:25:44.754Z,13.78
2019-04-04T06:27:20.308Z,13.55
2019-04-04T06:28:55.865Z,13.93
2019-04-04T06:30:42.515Z,13.33
2019-04-04T06:32:08.642Z,14.20
2019-04-04T06:33:44.180Z,13.93
2019-04-04T06:35:19.711Z,13.70
2019-04-04T06:36:56.518Z,13.80
2019-04-04T06:38:32.038Z,13.88
2019-04-04T06:40:08.693Z,14.47
2019-04-04T06:41:44.235Z,14.55
2019-04-04T06:43:19.766Z,13.48
2019-04-04T06:44:55.312Z,14.47
2019-04-04T06:46:30.843Z,14.35
2019-04-04T06:48:07.662Z,13.90
2019-04-04T06:49:45.728Z,13.58
2019-04-04T06:51:20.439Z,16.60
2019-04-04T06:52:56.659Z,14.45
2019-04-04T06:54:32.295Z,14.05
2019-04-04T06:56:07.832Z,15.45
2019-04-04T06:57:43.359Z,15.58
2019-04-04T06:59:19.191Z,14.83
2019-04-04T07:00:54.704Z,16.63
2019-04-04T07:02:30.249Z,16.17
2019-04-04T07:04:05.786Z,15.13
2019-04-04T07:05:41.325Z,15.35
2019-04-04T07:07:16.866Z,14.57
2019-04-04T07:08:52.404Z,15.07
2019-04-04T07:10:27.948Z,13.23
2019-04-04T07:12:06.532Z,13.33
2019-04-04T07:13:42.754Z,12.80
2019-04-04T07:15:18.112Z,13.20
2019-04-04T07:16:53.699Z,12.68
2019-04-04T07:18:29.281Z,11.68
2019-04-04T07:20:07.229Z,11.40
2019-04-04T07:21:42.744Z,11.68
2019-04-04T07:23:18.316Z,11.30
2019-04-04T07:24:53.910Z,11.12
2019-04-04T07:26:29.471Z,11.40
2019-04-04T07:28:05.056Z,11.78
2019-04-04T07:29:40.607Z,10.58
2019-04-04T07:31:16.315Z,10.50
2019-04-04T07:32:51.876Z,11.07
2019-04-04T07:34:27.452Z,10.82
2019-04-04T07:36:02.965Z,9.88
2019-04-04T07:37:38.517Z,11.63
2019-04-04T07:39:14.043Z,10.30
2019-04-04T07:40:49.583Z,10.82
2019-04-04T07:42:25.102Z,11.95
2019-04-04T07:44:00.659Z,10.40
2019-04-04T07:45:36.208Z,10.08
2019-04-04T07:47:15.778Z,10.10
2019-04-04T07:48:51.688Z,9.78
2019-04-04T07:50:27.270Z,9.63
2019-04-04T07:52:02.876Z,10.20
2019-04-04T07:53:38.398Z,10.93
2019-04-04T07:55:14.977Z,10.63
2019-04-04T07:56:50.654Z,10.47
2019-04-04T07:58:26.177Z,12.50
2019-04-04T08:00:01.750Z,10.90
2019-04-04T08:01:50.257Z,12.43
2019-04-04T08:03:14.581Z,14.20
2019-04-04T08:04:50.119Z,10.97
2019-04-04T08:06:25.632Z,10.32
2019-04-04T08:08:01.179Z,10.20
2019-04-04T08:09:36.748Z,10.75
2019-04-04T08:11:13.439Z,11.08
2019-04-04T08:12:49.228Z,11.18
2019-04-04T08:14:24.755Z,11.93
2019-04-04T08:16:00.319Z,10.83
2019-04-04T08:17:36.104Z,12.40
2019-04-04T08:19:11.629Z,10.48
2019-04-04T08:20:47.187Z,10.68
2019-04-04T08:22:22.846Z,10.13
2019-04-04T08:23:58.512Z,11.22
2019-04-04T08:25:34.079Z,10.63
2019-04-04T08:27:09.248Z,10.70
2019-04-04T08:28:44.703Z,13.90
2019-04-04T08:30:20.242Z,11.73
2019-04-04T08:31:55.753Z,11.25
2019-04-04T08:33:31.280Z,10.53
2019-04-04T08:35:09.259Z,10.72
2019-04-04T08:36:45.053Z,10.45
2019-04-04T08:38:20.593Z,10.75
2019-04-04T08:39:56.118Z,13.48
2019-04-04T08:41:31.656Z,11.03
2019-04-04T08:43:07.463Z,11.68
2019-04-04T08:44:43.090Z,12.90
2019-04-04T08:46:19.991Z,13.22
2019-04-04T08:47:55.742Z,13.75
2019-04-04T08:49:31.568Z,13.00
2019-04-04T08:51:07.208Z,15.10
2019-04-04T08:52:42.742Z,12.58
2019-04-04T08:54:18.277Z,12.30
2019-04-04T08:55:53.883Z,12.33
2019-04-04T08:57:29.434Z,13.17
2019-04-04T08:59:04.998Z,14.23
2019-04-04T09:00:40.531Z,13.98
2019-04-04T09:02:16.377Z,16.65
2019-04-04T09:03:51.922Z,13.35
2019-04-04T09:05:27.481Z,13.10
2019-04-04T09:07:03.012Z,13.72
2019-04-04T09:08:38.539Z,13.05
2019-04-04T09:10:15.613Z,12.53
2019-04-04T09:11:51.144Z,11.90
2019-04-04T09:13:26.674Z,11.90
2019-04-04T09:15:02.212Z,12.58
2019-04-04T09:16:37.758Z,12.13
2019-04-04T09:18:13.304Z,11.90
2019-04-04T09:19:48.833Z,11.45
2019-04-04T09:21:25.453Z,10.93
2019-04-04T09:23:00.990Z,10.88
2019-04-04T09:24:36.537Z,11.63
2019-04-04T09:26:12.092Z,11.90
2019-04-04T09:27:47.640Z,11.43
2019-04-04T09:29:23.172Z,14.23
2019-04-04T09:30:58.714Z,15.03
2019-04-04T09:32:34.248Z,13.58
2019-04-04T09:34:09.780Z,11.73
2019-04-04T09:35:45.408Z,11.55
2019-04-04T09:37:20.947Z,10.28
2019-04-04T09:38:56.488Z,8.33
2019-04-04T09:40:32.017Z,7.33
2019-04-04T09:42:07.528Z,8.53
2019-04-04T09:43:43.067Z,9.30
2019-04-04T09:45:18.769Z,7.65
2019-04-04T09:47:04.953Z,7.97
2019-04-04T09:48:31.790Z,7.28
2019-04-04T09:50:10.060Z,6.12
2019-04-04T09:51:45.588Z,6.20
2019-04-04T09:53:21.087Z,4.92
2019-04-04T09:54:56.624Z,5.33
2019-04-04T09:56:32.162Z,4.70
2019-04-04T09:58:07.700Z,5.27
2019-04-04T09:59:43.246Z,4.40
2019-04-04T10:01:19.392Z,4.12
2019-04-04T10:02:54.918Z,4.90
2019-04-04T10:04:30.696Z,4.50
2019-04-04T10:06:06.234Z,4.60
2019-04-04T10:07:41.757Z,4.72
2019-04-04T10:09:17.698Z,4.85
2019-04-04T10:10:53.492Z,4.75
2019-04-04T10:12:29.649Z,5.20
2019-04-04T10:14:06.340Z,5.13
2019-04-04T10:15:42.155Z,4.78
2019-04-04T10:17:18.174Z,6.17
2019-04-04T10:18:53.709Z,4.80
2019-04-04T10:20:29.252Z,4.75
2019-04-04T10:22:04.783Z,5.17
2019-04-04T10:23:41.248Z,4.75
2019-04-04T10:25:16.764Z,4.53
2019-04-04T10:26:52.286Z,6.53
2019-04-04T10:28:27.821Z,4.72
2019-04-04T10:30:04.468Z,5.35
2019-04-04T10:31:40.299Z,4.58
2019-04-04T10:33:15.794Z,7.35
2019-04-04T10:34:51.315Z,4.42
2019-04-04T10:36:26.841Z,4.45
2019-04-04T10:38:02.372Z,4.80
2019-04-04T10:39:37.904Z,4.80
2019-04-04T10:41:13.705Z,4.55
2019-04-04T10:42:49.212Z,6.20
2019-04-04T10:44:24.734Z,6.05
2019-04-04T10:46:00.271Z,5.40
2019-04-04T10:47:35.804Z,5.28
2019-04-04T10:49:11.334Z,5.10
2019-04-04T10:50:46.879Z,5.22
2019-04-04T10:52:22.408Z,5.03
2019-04-04T10:53:57.950Z,5.80
2019-04-04T10:55:33.508Z,4.58
2019-04-04T10:57:09.026Z,5.40
2019-04-04T10:58:44.571Z,5.10
2019-04-04T11:00:21.950Z,4.55
2019-04-04T11:02:00.697Z,8.00
2019-04-04T11:03:34.735Z,4.80
2019-04-04T11:05:10.550Z,4.72
2019-04-04T11:06:46.337Z,5.12
2019-04-04T11:08:22.546Z,6.62
2019-04-04T11:09:59.027Z,5.10
2019-04-04T11:11:34.557Z,6.63
2019-04-04T11:13:10.396Z,6.20
2019-04-04T11:14:45.948Z,5.42
2019-04-04T11:16:30.172Z,5.37
2019-04-04T11:18:00.275Z,4.62
2019-04-04T11:19:35.816Z,5.62
2019-04-04T11:21:11.359Z,6.03
2019-04-04T11:22:47.956Z,4.80
2019-04-04T11:24:23.755Z,4.53
2019-04-04T11:25:59.307Z,4.30
2019-04-04T11:27:34.836Z,6.43
2019-04-04T11:29:10.372Z,6.35
2019-04-04T11:30:45.923Z,5.25
2019-04-04T11:32:21.446Z,4.42
2019-04-04T11:33:56.963Z,4.50
2019-04-04T11:35:33.224Z,4.37
2019-04-04T11:37:08.755Z,5.25
2019-04-04T11:38:45.365Z,5.55
2019-04-04T11:40:20.966Z,4.60
2019-04-04T11:41:56.490Z,6.83
2019-04-04T11:43:32.015Z,5.55
2019-04-04T11:45:08.484Z,6.67
2019-04-04T11:46:44.052Z,5.30
2019-04-04T11:48:19.575Z,5.30
2019-04-04T11:49:55.111Z,5.15
2019-04-04T11:51:30.647Z,5.70
2019-04-04T11:53:06.499Z,5.62
2019-04-04T11:55:01.490Z,7.35
2019-04-04T11:56:38.027Z,5.97
2019-04-04T11:58:13.562Z,5.97
2019-04-04T11:59:49.118Z,9.58
2019-04-04T12:01:27.131Z,4.78
2019-04-04T12:03:02.973Z,5.40
2019-04-04T12:04:38.508Z,4.90
2019-04-04T12:06:14.042Z,5.40
2019-04-04T12:07:49.582Z,6.25
2019-04-04T12:09:25.673Z,5.37
2019-04-04T12:11:01.178Z,5.50
2019-04-04T12:12:36.710Z,5.10
2019-04-04T12:14:12.240Z,5.30
2019-04-04T12:15:47.763Z,5.20
2019-04-04T12:17:23.299Z,6.60
2019-04-04T12:18:58.800Z,5.65
2019-04-04T12:20:34.323Z,5.20
2019-04-04T12:22:11.791Z,5.55
2019-04-04T12:23:47.354Z,5.47
2019-04-04T12:25:23.912Z,6.58
2019-04-04T12:26:59.453Z,5.87
2019-04-04T12:28:34.976Z,8.28
2019-04-04T12:30:10.665Z,5.53
2019-04-04T12:31:46.212Z,6.70
2019-04-04T12:33:21.776Z,5.53
2019-04-04T12:34:57.293Z,5.37
2019-04-04T12:36:32.850Z,5.57
2019-04-04T12:38:08.438Z,5.30
2019-04-04T12:39:44.600Z,5.93
2019-04-04T12:41:20.244Z,5.20
2019-04-04T12:42:58.444Z,5.20
2019-04-04T12:44:34.148Z,5.20
2019-04-04T12:46:09.745Z,6.03
2019-04-04T12:47:47.929Z,6.27
2019-04-04T12:49:23.441Z,5.25
2019-04-04T12:50:58.976Z,5.28
2019-04-04T12:52:36.794Z,12.07
2019-04-04T12:54:11.752Z,5.85
2019-04-04T12:55:47.301Z,5.53
2019-04-04T12:57:23.091Z,6.65
2019-04-04T12:58:58.616Z,5.37
2019-04-04T13:00:34.150Z,5.20
2019-04-04T13:02:09.706Z,4.90
2019-04-04T13:03:45.543Z,5.47
2019-04-04T13:05:21.056Z,5.40
2019-04-04T13:06:56.844Z,7.80
2019-04-04T13:08:32.430Z,6.87
2019-04-04T13:10:11.643Z,5.53
2019-04-04T13:11:46.858Z,5.72
2019-04-04T13:13:22.612Z,5.87
2019-04-04T13:14:58.149Z,6.65
2019-04-04T13:16:34.012Z,5.90
2019-04-04T13:18:09.515Z,9.13
2019-04-04T13:19:46.143Z,7.65
2019-04-04T13:21:21.774Z,7.45
2019-04-04T13:22:57.261Z,5.30
2019-04-04T13:24:32.804Z,5.67
2019-04-04T13:26:08.362Z,6.45
2019-04-04T13:27:43.899Z,6.97
2019-04-04T13:29:19.439Z,6.28
2019-04-04T13:30:55.951Z,6.28
2019-04-04T13:32:31.494Z,5.65
2019-04-04T13:34:07.013Z,5.20
2019-04-04T13:35:42.570Z,5.30
2019-04-04T13:37:18.116Z,5.90
2019-04-04T13:38:55.106Z,6.60
2019-04-04T13:40:30.935Z,5.12
2019-04-04T13:42:06.837Z,9.38
2019-04-04T13:43:42.383Z,8.03
2019-04-04T13:45:17.969Z,7.03
2019-04-04T13:46:53.565Z,6.45
2019-04-04T13:48:29.100Z,7.80
2019-04-04T13:50:07.201Z,5.30
2019-04-04T13:51:42.728Z,5.78
2019-04-04T13:53:20.690Z,5.60
2019-04-04T13:54:55.957Z,6.28
2019-04-04T13:56:31.893Z,7.42
2019-04-04T13:58:07.716Z,7.00
2019-04-04T13:59:43.228Z,6.37
2019-04-04T14:01:18.758Z,7.28
2019-04-04T14:02:54.292Z,9.33
2019-04-04T14:04:30.082Z,5.67
2019-04-04T14:06:05.688Z,6.00
2019-04-04T14:07:43.704Z,6.20
2019-04-04T14:09:18.443Z,6.00
2019-04-04T14:10:58.265Z,9.65
2019-04-04T14:12:31.544Z,6.37
2019-04-04T14:14:07.261Z,9.06
2019-04-04T14:15:42.753Z,5.53
2019-04-04T14:17:18.574Z,7.80
2019-04-04T14:18:54.111Z,8.95
2019-04-04T14:20:29.624Z,7.78
2019-04-04T14:22:05.181Z,8.20
2019-04-04T14:23:40.670Z,6.12
2019-04-04T14:25:16.172Z,6.33
2019-04-04T14:26:51.693Z,6.50
2019-04-04T14:28:29.202Z,6.12
2019-04-04T14:30:07.244Z,6.40
2019-04-04T14:31:42.783Z,5.40
2019-04-04T14:33:18.564Z,6.22
2019-04-04T14:34:54.103Z,6.07
2019-04-04T14:36:29.641Z,8.85
2019-04-04T14:38:05.201Z,6.93
2019-04-04T14:39:40.730Z,5.92
2019-04-04T14:41:16.269Z,6.80
2019-04-04T14:42:51.811Z,6.08
2019-04-04T14:44:28.102Z,6.33
2019-04-04T14:46:04.652Z,6.08
2019-04-04T14:47:40.252Z,6.37
2019-04-04T14:49:15.772Z,9.50
2019-04-04T14:50:51.296Z,9.45
2019-04-04T14:52:27.122Z,8.68
2019-04-04T14:54:03.610Z,6.55
2019-04-04T14:55:39.131Z,6.78
2019-04-04T14:57:14.655Z,8.33
2019-04-04T14:58:50.189Z,5.75
2019-04-04T15:00:25.728Z,7.87
2019-04-04T15:02:01.244Z,5.75
2019-04-04T15:03:36.783Z,6.33
2019-04-04T15:05:12.366Z,7.20
2019-04-04T15:06:47.894Z,6.25
2019-04-04T15:08:23.432Z,7.10
2019-04-04T15:09:58.952Z,6.22
2019-04-04T15:11:34.481Z,6.42
2019-04-04T15:13:10.029Z,9.15
2019-04-04T15:14:45.639Z,5.85
2019-04-04T15:16:21.178Z,5.90
2019-04-04T15:17:56.713Z,7.05
2019-04-04T15:19:32.228Z,6.83
2019-04-04T15:21:08.845Z,5.78
2019-04-04T15:22:44.692Z,6.15
2019-04-04T15:24:20.263Z,6.50
2019-04-04T15:25:56.078Z,5.25
2019-04-04T15:27:31.617Z,6.15
2019-04-04T15:29:07.154Z,5.08
2019-04-04T15:30:42.641Z,5.05
2019-04-04T15:32:18.169Z,5.50
2019-04-04T15:33:53.737Z,5.85
2019-04-04T15:35:29.267Z,4.72
2019-04-04T15:37:04.818Z,6.08
2019-04-04T15:38:40.338Z,6.83
2019-04-04T15:40:16.116Z,5.95
2019-04-04T15:41:51.654Z,5.65
2019-04-04T15:43:27.166Z,5.37
2019-04-04T15:45:02.702Z,4.97
2019-04-04T15:46:39.318Z,7.12
2019-04-04T15:48:15.112Z,5.95
2019-04-04T15:49:50.635Z,6.25
2019-04-04T15:51:26.156Z,5.20
2019-04-04T15:53:01.707Z,5.17
2019-04-04T15:54:37.509Z,5.30
2019-04-04T15:56:13.036Z,5.27
2019-04-04T15:57:48.569Z,5.22
2019-04-04T15:59:24.842Z,6.55
2019-04-04T16:01:00.703Z,8.03
2019-04-04T16:02:37.972Z,4.87
2019-04-04T16:04:13.498Z,5.63
2019-04-04T16:05:49.022Z,12.10
2019-04-04T16:07:24.565Z,8.25
2019-04-04T16:09:00.090Z,5.53
2019-04-04T16:10:35.624Z,5.20
2019-04-04T16:12:11.170Z,6.30
2019-04-04T16:13:46.707Z,7.00
2019-04-04T16:15:22.333Z,6.58
2019-04-04T16:16:57.866Z,6.60
2019-04-04T16:18:33.393Z,6.33
2019-04-04T16:20:10.749Z,6.75
2019-04-04T16:21:46.309Z,7.22
2019-04-04T16:23:21.837Z,6.37
2019-04-04T16:24:57.624Z,6.97
2019-04-04T16:26:33.162Z,6.03
2019-04-04T16:28:08.819Z,5.72
2019-04-04T16:29:44.374Z,9.33
2019-04-04T16:31:19.889Z,6.30
2019-04-04T16:32:55.427Z,6.30
2019-04-04T16:34:30.965Z,6.40
2019-04-04T16:36:06.488Z,6.17
2019-04-04T16:37:42.043Z,7.62
2019-04-04T16:39:17.836Z,5.70
2019-04-04T16:40:53.694Z,6.67
2019-04-04T16:42:29.533Z,7.58
2019-04-04T16:44:05.971Z,5.67
2019-04-04T16:45:41.504Z,6.72
2019-04-04T16:47:17.036Z,6.47
2019-04-04T16:48:52.568Z,6.67
2019-04-04T16:50:28.089Z,6.42
2019-04-04T16:52:03.649Z,8.53
2019-04-04T16:53:40.683Z,7.00
2019-04-04T16:55:16.379Z,8.43
2019-04-04T16:56:51.963Z,6.65
2019-04-04T16:58:27.761Z,7.63
2019-04-04T17:00:07.096Z,7.00
2019-04-04T17:01:42.699Z,10.15
2019-04-04T17:03:18.218Z,7.85
2019-04-04T17:04:53.740Z,8.38
2019-04-04T17:06:30.614Z,6.92
2019-04-04T17:08:06.130Z,10.50
2019-04-04T17:09:41.876Z,7.47
2019-04-04T17:11:17.416Z,6.90
2019-04-04T17:12:52.933Z,9.33
2019-04-04T17:14:28.462Z,7.85
2019-04-04T17:16:04.157Z,7.37
2019-04-04T17:17:39.700Z,9.30
2019-04-04T17:19:15.254Z,7.65
2019-04-04T17:20:50.772Z,11.12
2019-04-04T17:22:29.043Z,9.97
2019-04-04T17:24:03.575Z,7.05
2019-04-04T17:25:39.118Z,9.73
2019-04-04T17:27:14.635Z,7.33
2019-04-04T17:28:50.177Z,8.03
2019-04-04T17:30:25.718Z,8.00
2019-04-04T17:32:01.224Z,8.65
2019-04-04T17:33:36.988Z,9.95
2019-04-04T17:35:13.107Z,8.03
2019-04-04T17:36:49.220Z,8.38
2019-04-04T17:38:24.732Z,6.53
2019-04-04T17:40:00.256Z,7.83
2019-04-04T17:41:35.817Z,10.53
2019-04-04T17:43:12.763Z,7.17
2019-04-04T17:44:48.373Z,9.00
2019-04-04T17:46:24.107Z,9.75
2019-04-04T17:47:59.627Z,6.92
2019-04-04T17:49:35.279Z,6.70
2019-04-04T17:51:11.147Z,9.98
2019-04-04T17:52:46.901Z,8.50
2019-04-04T17:54:22.507Z,6.60
2019-04-04T17:55:58.609Z,6.30
2019-04-04T17:57:34.225Z,10.43
2019-04-04T17:59:09.762Z,8.70
2019-04-04T18:00:45.618Z,8.85
2019-04-04T18:02:21.194Z,6.83
2019-04-04T18:03:56.721Z,7.00
2019-04-04T18:05:32.244Z,6.30
2019-04-04T18:07:07.768Z,7.60
2019-04-04T18:08:43.288Z,7.25
2019-04-04T18:10:19.178Z,8.76
2019-04-04T18:11:54.695Z,7.33
2019-04-04T18:13:32.240Z,6.75
2019-04-04T18:15:08.713Z,9.28
2019-04-04T18:16:44.831Z,7.53
2019-04-04T18:18:20.388Z,6.50
2019-04-04T18:19:55.922Z,7.43
2019-04-04T18:21:31.466Z,6.43
2019-04-04T18:23:06.993Z,8.90
2019-04-04T18:24:42.530Z,5.97
2019-04-04T18:26:18.092Z,7.03
2019-04-04T18:27:53.897Z,12.28
2019-04-04T18:29:29.947Z,6.90
2019-04-04T18:31:05.468Z,7.35
2019-04-04T18:32:41.010Z,7.20
2019-04-04T18:34:16.673Z,8.05
2019-04-04T18:35:52.153Z,6.08
2019-04-04T18:37:27.712Z,7.57
2019-04-04T18:39:03.288Z,9.65
2019-04-04T18:40:40.096Z,11.03
2019-04-04T18:42:15.741Z,7.12
2019-04-04T18:43:51.258Z,6.70
2019-04-04T18:45:26.796Z,6.17
2019-04-04T18:47:02.327Z,9.43
2019-04-04T18:48:37.859Z,8.83
2019-04-04T18:50:13.740Z,6.58
2019-04-04T18:51:49.279Z,7.15
2019-04-04T18:53:24.799Z,7.33
2019-04-04T18:55:00.341Z,9.93
2019-04-04T18:56:36.848Z,8.53
2019-04-04T18:58:12.393Z,5.90
2019-04-04T18:59:47.904Z,7.15
2019-04-04T19:01:23.447Z,6.80
2019-04-04T19:02:58.976Z,7.78
2019-04-04T19:04:35.344Z,8.28
2019-04-04T19:06:10.965Z,9.38
2019-04-04T19:07:47.552Z,7.10
2019-04-04T19:09:23.099Z,7.50
2019-04-04T19:10:58.612Z,8.25
2019-04-04T19:12:34.204Z,6.67
2019-04-04T19:14:09.717Z,9.63
2019-04-04T19:15:45.291Z,6.78
2019-04-04T19:17:20.807Z,6.83
2019-04-04T19:18:56.336Z,7.17
2019-04-04T19:20:31.873Z,7.10
2019-04-04T19:22:07.498Z,6.90
2019-04-04T19:23:49.232Z,8.33
2019-04-04T19:25:20.286Z,6.58
2019-04-04T19:26:55.802Z,7.25
2019-04-04T19:28:31.343Z,7.40
2019-04-04T19:30:10.542Z,6.85
2019-04-04T19:31:46.221Z,9.25
2019-04-04T19:33:21.748Z,6.60
2019-04-04T19:34:57.317Z,7.47
2019-04-04T19:36:32.862Z,7.03
2019-04-04T19:38:08.636Z,8.23
2019-04-04T19:39:44.205Z,6.90
2019-04-04T19:41:19.762Z,6.22
2019-04-04T19:42:55.264Z,7.50
2019-04-04T19:44:31.092Z,6.87
2019-04-04T19:46:06.632Z,7.00
2019-04-04T19:47:42.172Z,6.63
2019-04-04T19:49:18.701Z,8.07
2019-04-04T19:50:54.241Z,8.47
2019-04-04T19:52:29.799Z,7.20
2019-04-04T19:54:05.372Z,7.55
2019-04-04T19:55:42.392Z,8.17
2019-04-04T19:57:19.376Z,8.10
2019-04-04T19:58:54.915Z,9.45
2019-04-04T20:00:32.071Z,7.27
2019-04-04T20:02:07.754Z,8.53
2019-04-04T20:03:43.278Z,7.67
2019-04-04T20:05:19.680Z,8.53
2019-04-04T20:06:55.495Z,9.83
2019-04-04T20:08:31.059Z,6.83
2019-04-04T20:10:07.767Z,7.47
2019-04-04T20:11:43.675Z,7.90
2019-04-04T20:13:30.237Z,8.13
2019-04-04T20:14:56.740Z,7.50
2019-04-04T20:16:32.279Z,7.53
2019-04-04T20:18:07.851Z,7.35
2019-04-04T20:19:43.748Z,8.77
2019-04-04T20:21:19.280Z,8.20
2019-04-04T20:22:54.823Z,9.23
2019-04-04T20:24:30.436Z,7.47
2019-04-04T20:26:06.042Z,7.30
2019-04-04T20:27:53.705Z,8.07
2019-04-04T20:29:18.797Z,7.80
2019-04-04T20:30:54.359Z,9.47
2019-04-04T20:32:29.879Z,7.10
2019-04-04T20:34:06.086Z,6.80
2019-04-04T20:35:42.175Z,7.30
2019-04-04T20:37:17.701Z,7.83
2019-04-04T20:38:53.242Z,9.60
2019-04-04T20:40:28.785Z,9.37
2019-04-04T20:42:04.570Z,7.28
2019-04-04T20:43:43.437Z,8.27
2019-04-04T20:45:17.619Z,7.30
2019-04-04T20:46:53.164Z,7.03
2019-04-04T20:48:28.686Z,8.25
2019-04-04T20:50:06.353Z,7.05
2019-04-04T20:51:41.894Z,11.73
2019-04-04T20:53:17.437Z,8.80
2019-04-04T20:54:53.249Z,7.23
2019-04-04T20:56:28.801Z,7.60